createdAt,value
2023-03-04T00:30:14.538Z,1015.91
2023-03-04T00:30:54.967Z,1015.93
2023-03-04T00:31:35.595Z,1015.92
2023-03-04T00:32:16.038Z,1015.91
2023-03-04T00:32:56.480Z,1015.92
2023-03-04T00:33:36.948Z,1015.91
2023-03-04T00:34:17.451Z,1015.93
2023-03-04T00:34:57.994Z,1015.91
2023-03-04T00:35:38.505Z,1015.94
2023-03-04T00:36:19.026Z,1015.89
2023-03-04T00:36:59.546Z,1015.92
2023-03-04T00:37:40.023Z,1015.92
2023-03-04T00:38:20.529Z,1015.95
2023-03-04T00:39:01.075Z,1015.95
2023-03-04T00:39:41.598Z,1015.95
2023-03-04T00:40:22.113Z,1015.95
2023-03-04T00:41:02.671Z,1015.9
2023-03-04T00:41:43.168Z,1015.9
2023-03-04T00:42:23.711Z,1015.87
2023-03-04T00:43:04.228Z,1015.89
2023-03-04T00:43:44.719Z,1015.88
2023-03-04T00:44:25.202Z,1015.91
2023-03-04T00:46:38.384Z,1015.85
2023-03-04T00:47:18.839Z,1015.88
2023-03-04T00:47:59.385Z,1015.9
2023-03-04T00:48:39.841Z,1015.91
2023-03-04T00:49:20.383Z,1015.91
2023-03-04T00:50:00.861Z,1015.89
2023-03-04T00:50:41.358Z,1015.88
2023-03-04T00:52:02.300Z,1015.88
2023-03-04T00:52:42.802Z,1015.89
2023-03-04T00:53:23.360Z,1015.9
2023-03-04T00:54:03.787Z,1015.88
2023-03-04T00:54:44.277Z,1015.9
2023-03-04T00:55:24.788Z,1015.91
2023-03-04T00:56:05.258Z,1015.88
2023-03-04T00:56:45.774Z,1015.92
2023-03-04T00:57:26.274Z,1015.88
2023-03-04T00:58:06.762Z,1015.91
2023-03-04T01:00:34.661Z,1015.84
2023-03-04T01:01:15.341Z,1015.83
2023-03-04T01:01:55.685Z,1015.83
2023-03-04T01:02:36.259Z,1015.85
2023-03-04T01:03:16.651Z,1015.81
2023-03-04T01:04:37.651Z,1015.87
2023-03-04T01:05:18.103Z,1015.84
2023-03-04T01:05:59.146Z,1015.83
2023-03-04T01:06:39.666Z,1015.84
2023-03-04T01:07:20.139Z,1015.82
2023-03-04T01:08:00.625Z,1015.84
2023-03-04T01:08:41.119Z,1015.84
2023-03-04T01:09:21.576Z,1015.82
2023-03-04T01:10:02.076Z,1015.83
2023-03-04T01:10:42.575Z,1015.89
2023-03-04T01:11:23.093Z,1015.85
2023-03-04T01:12:03.510Z,1015.86
2023-03-04T01:12:43.981Z,1015.84
2023-03-04T01:13:24.527Z,1015.87
2023-03-04T01:14:04.905Z,1015.88
2023-03-04T01:14:45.413Z,1015.85
2023-03-04T01:15:25.849Z,1015.84
2023-03-04T01:16:06.309Z,1015.85
2023-03-04T01:16:46.838Z,1015.82
2023-03-04T01:17:27.277Z,1015.83
2023-03-04T01:18:07.776Z,1015.82
2023-03-04T01:18:48.218Z,1015.81
2023-03-04T01:19:28.757Z,1015.81
2023-03-04T01:20:09.177Z,1015.79
2023-03-04T01:20:49.796Z,1015.82
2023-03-04T01:21:30.156Z,1015.78
2023-03-04T01:22:10.644Z,1015.74
2023-03-04T01:22:51.093Z,1015.74
2023-03-04T01:23:31.578Z,1015.74
2023-03-04T01:24:12.076Z,1015.71
2023-03-04T01:24:52.535Z,1015.72
2023-03-04T01:25:33.013Z,1015.69
2023-03-04T01:26:13.457Z,1015.71
2023-03-04T01:26:53.953Z,1015.73
2023-03-04T01:27:34.503Z,1015.72
2023-03-04T01:28:14.922Z,1015.72
2023-03-04T01:29:35.896Z,1015.72
2023-03-04T01:30:16.440Z,1015.73
2023-03-04T01:30:56.902Z,1015.66
2023-03-04T01:31:37.355Z,1015.71
2023-03-04T01:32:17.853Z,1015.68
2023-03-04T01:32:58.353Z,1015.7
2023-03-04T01:33:38.811Z,1015.7
2023-03-04T01:34:19.290Z,1015.69
2023-03-04T01:34:59.816Z,1015.67
2023-03-04T01:35:40.357Z,1015.64
2023-03-04T01:36:20.758Z,1015.63
2023-03-04T01:37:01.249Z,1015.61
2023-03-04T01:37:41.706Z,1015.65
2023-03-04T01:38:22.242Z,1015.64
2023-03-04T01:39:02.684Z,1015.59
2023-03-04T01:39:43.099Z,1015.57
2023-03-04T01:40:23.586Z,1015.63
2023-03-04T01:41:04.061Z,1015.58
2023-03-04T01:41:44.535Z,1015.56
2023-03-04T01:42:25.026Z,1015.56
2023-03-04T01:43:05.567Z,1015.54
2023-03-04T01:43:46.030Z,1015.52
2023-03-04T01:44:26.507Z,1015.52
2023-03-04T01:45:07.016Z,1015.49
2023-03-04T01:45:47.540Z,1015.5
2023-03-04T01:47:08.398Z,1015.48
2023-03-04T01:47:48.910Z,1015.48
2023-03-04T01:48:29.386Z,1015.51
2023-03-04T01:49:09.862Z,1015.47
2023-03-04T01:49:50.333Z,1015.43
2023-03-04T01:50:30.805Z,1015.41
2023-03-04T01:51:11.340Z,1015.44
2023-03-04T01:51:51.788Z,1015.42
2023-03-04T01:52:32.319Z,1015.43
2023-03-04T01:53:12.792Z,1015.42
2023-03-04T01:53:53.270Z,1015.4
2023-03-04T01:54:33.768Z,1015.42
2023-03-04T01:55:14.259Z,1015.44
2023-03-04T01:55:54.739Z,1015.39
2023-03-04T01:56:35.280Z,1015.41
2023-03-04T01:57:15.755Z,1015.41
2023-03-04T01:57:56.223Z,1015.4
2023-03-04T01:58:36.692Z,1015.4
2023-03-04T01:59:57.630Z,1015.4
2023-03-04T02:00:38.134Z,1015.4
2023-03-04T02:01:18.683Z,1015.35
2023-03-04T02:01:59.105Z,1015.4
2023-03-04T02:02:39.581Z,1015.35
2023-03-04T02:03:20.047Z,1015.34
2023-03-04T02:04:00.563Z,1015.36
2023-03-04T02:04:41.080Z,1015.33
2023-03-04T02:05:21.497Z,1015.34
2023-03-04T02:06:02.016Z,1015.37
2023-03-04T02:07:22.978Z,1015.31
2023-03-04T02:08:03.511Z,1015.33
2023-03-04T02:08:43.984Z,1015.37
2023-03-04T02:09:24.482Z,1015.33
2023-03-04T02:10:04.935Z,1015.33
2023-03-04T02:10:45.419Z,1015.33
2023-03-04T02:11:25.907Z,1015.29
2023-03-04T02:12:06.384Z,1015.29
2023-03-04T02:12:46.854Z,1015.29
2023-03-04T02:13:27.370Z,1015.26
2023-03-04T02:14:07.827Z,1015.26
2023-03-04T02:14:48.312Z,1015.22
2023-03-04T02:15:28.792Z,1015.26
2023-03-04T02:16:09.323Z,1015.22
2023-03-04T02:16:49.752Z,1015.24
2023-03-04T02:17:30.224Z,1015.23
2023-03-04T02:18:10.762Z,1015.22
2023-03-04T02:18:51.219Z,1015.25
2023-03-04T02:19:31.708Z,1015.21
2023-03-04T02:20:12.153Z,1015.2
2023-03-04T02:20:52.627Z,1015.23
2023-03-04T02:21:33.119Z,1015.24
2023-03-04T02:22:13.574Z,1015.21
2023-03-04T02:22:54.037Z,1015.2
2023-03-04T02:23:34.532Z,1015.22
2023-03-04T02:24:15.040Z,1015.21
2023-03-04T02:24:55.520Z,1015.19
2023-03-04T02:25:36.022Z,1015.2
2023-03-04T02:26:16.585Z,1015.22
2023-03-04T02:26:57.016Z,1015.21
2023-03-04T02:27:37.509Z,1015.19
2023-03-04T02:28:17.967Z,1015.21
2023-03-04T02:28:58.430Z,1015.22
2023-03-04T02:30:20.251Z,1015.24
2023-03-04T02:31:00.783Z,1015.2
2023-03-04T02:31:41.308Z,1015.17
2023-03-04T02:32:21.733Z,1015.22
2023-03-04T02:33:02.207Z,1015.17
2023-03-04T02:33:42.790Z,1015.2
2023-03-04T02:34:23.223Z,1015.24
2023-03-04T02:35:03.726Z,1015.16
2023-03-04T02:35:44.214Z,1015.18
2023-03-04T02:36:24.712Z,1015.18
2023-03-04T02:37:45.663Z,1015.18
2023-03-04T02:38:26.122Z,1015.18
2023-03-04T02:39:06.609Z,1015.15
2023-03-04T02:39:47.089Z,1015.15
2023-03-04T02:40:27.524Z,1015.12
2023-03-04T02:41:08.071Z,1015.12
2023-03-04T02:41:48.563Z,1015.13
2023-03-04T02:42:29.073Z,1015.14
2023-03-04T02:43:09.577Z,1015.13
2023-03-04T02:43:50.047Z,1015.13
2023-03-04T02:44:30.620Z,1015.11
2023-03-04T02:45:11.036Z,1015.15
2023-03-04T02:45:51.585Z,1015.13
2023-03-04T02:46:32.040Z,1015.1
2023-03-04T02:47:12.489Z,1015.15
2023-03-04T02:47:53.001Z,1015.1
2023-03-04T02:48:33.532Z,1015.07
2023-03-04T02:49:14.035Z,1015.08
2023-03-04T02:49:54.493Z,1015.09
2023-03-04T02:50:34.970Z,1015.1
2023-03-04T02:51:15.455Z,1015.15
2023-03-04T02:51:55.952Z,1015.12
2023-03-04T02:52:36.464Z,1015.12
2023-03-04T02:53:16.961Z,1015.12
2023-03-04T02:53:57.438Z,1015.07
2023-03-04T02:54:37.934Z,1015.09
2023-03-04T02:55:18.412Z,1015.05
2023-03-04T02:55:58.933Z,1015.1
2023-03-04T02:56:39.437Z,1015.1
2023-03-04T02:57:19.963Z,1015.07
2023-03-04T02:58:00.388Z,1015.15
2023-03-04T02:58:40.854Z,1015.09
2023-03-04T02:59:21.329Z,1015.1
2023-03-04T03:00:01.851Z,1015.06
2023-03-04T03:00:42.295Z,1015.06
2023-03-04T03:01:22.912Z,1015.08
2023-03-04T03:02:03.350Z,1015.09
2023-03-04T03:02:43.815Z,1015.06
2023-03-04T03:03:24.310Z,1015.08
2023-03-04T03:04:04.788Z,1015.06
2023-03-04T03:04:45.317Z,1015.05
2023-03-04T03:05:25.806Z,1015.03
2023-03-04T03:06:06.327Z,1015.06
2023-03-04T03:08:34.229Z,1015.08
2023-03-04T03:09:14.723Z,1015.06
2023-03-04T03:09:55.218Z,1015.08
2023-03-04T03:10:35.719Z,1015.07
2023-03-04T03:11:16.184Z,1015.04
2023-03-04T03:11:56.684Z,1015.03
2023-03-04T03:12:37.179Z,1015.03
2023-03-04T03:13:17.714Z,1015.05
2023-03-04T03:13:58.175Z,1015
2023-03-04T03:14:38.667Z,1015.03
2023-03-04T03:15:19.141Z,1014.99
2023-03-04T03:15:59.614Z,1014.95
2023-03-04T03:16:40.103Z,1014.97
2023-03-04T03:18:01.111Z,1014.99
2023-03-04T03:18:41.615Z,1014.99
2023-03-04T03:19:22.126Z,1014.92
2023-03-04T03:20:02.603Z,1014.96
2023-03-04T03:20:43.092Z,1014.94
2023-03-04T03:21:23.602Z,1014.95
2023-03-04T03:22:04.069Z,1014.95
2023-03-04T03:22:44.542Z,1014.94
2023-03-04T03:23:25.094Z,1014.9
2023-03-04T03:24:05.572Z,1014.9
2023-03-04T03:24:46.064Z,1014.93
2023-03-04T03:25:26.556Z,1014.92
2023-03-04T03:26:06.998Z,1014.93
2023-03-04T03:26:47.482Z,1014.89
2023-03-04T03:28:08.451Z,1014.9
2023-03-04T03:28:48.967Z,1014.9
2023-03-04T03:29:29.502Z,1014.91
2023-03-04T03:30:09.960Z,1014.88
2023-03-04T03:30:50.500Z,1014.86
2023-03-04T03:31:31.118Z,1014.87
2023-03-04T03:32:11.533Z,1014.87
2023-03-04T03:32:52.064Z,1014.86
2023-03-04T03:33:32.535Z,1014.88
2023-03-04T03:34:13.063Z,1014.84
2023-03-04T03:34:53.551Z,1014.85
2023-03-04T03:35:34.107Z,1014.8
2023-03-04T03:36:14.586Z,1014.85
2023-03-04T03:36:55.108Z,1014.79
2023-03-04T03:37:35.556Z,1014.84
2023-03-04T03:38:16.057Z,1014.83
2023-03-04T03:38:56.659Z,1014.83
2023-03-04T03:39:37.129Z,1014.77
2023-03-04T03:40:17.676Z,1014.78
2023-03-04T03:40:58.103Z,1014.79
2023-03-04T03:41:38.617Z,1014.79
2023-03-04T03:42:19.099Z,1014.81
2023-03-04T03:42:59.612Z,1014.78
2023-03-04T03:43:40.102Z,1014.77
2023-03-04T03:44:20.551Z,1014.77
2023-03-04T03:45:01.066Z,1014.77
2023-03-04T03:45:41.622Z,1014.75
2023-03-04T03:46:22.152Z,1014.76
2023-03-04T03:47:02.677Z,1014.78
2023-03-04T03:47:43.161Z,1014.77
2023-03-04T03:48:23.644Z,1014.78
2023-03-04T03:49:04.215Z,1014.77
2023-03-04T03:49:44.674Z,1014.77
2023-03-04T03:50:25.152Z,1014.73
2023-03-04T03:51:05.635Z,1014.78
2023-03-04T03:51:46.188Z,1014.75
2023-03-04T03:53:07.169Z,1014.76
2023-03-04T03:53:47.628Z,1014.73
2023-03-04T03:54:28.148Z,1014.74
2023-03-04T03:55:08.601Z,1014.74
2023-03-04T03:55:49.126Z,1014.74
2023-03-04T03:56:29.603Z,1014.77
2023-03-04T03:57:10.063Z,1014.79
2023-03-04T03:57:50.604Z,1014.76
2023-03-04T03:58:31.096Z,1014.76
2023-03-04T03:59:11.611Z,1014.79
2023-03-04T04:00:32.655Z,1014.8
2023-03-04T04:01:13.153Z,1014.75
2023-03-04T04:01:53.743Z,1014.73
2023-03-04T04:02:34.244Z,1014.78
2023-03-04T04:03:14.628Z,1014.76
2023-03-04T04:03:55.130Z,1014.78
2023-03-04T04:04:35.678Z,1014.74
2023-03-04T04:05:16.145Z,1014.75
2023-03-04T04:05:56.626Z,1014.74
2023-03-04T04:06:37.136Z,1014.78
2023-03-04T04:07:17.628Z,1014.78
2023-03-04T04:07:58.178Z,1014.76
2023-03-04T04:08:38.621Z,1014.74
2023-03-04T04:09:19.139Z,1014.74
2023-03-04T04:09:59.615Z,1014.72
2023-03-04T04:10:40.108Z,1014.71
2023-03-04T04:11:20.615Z,1014.72
2023-03-04T04:12:01.061Z,1014.74
2023-03-04T04:12:41.565Z,1014.72
2023-03-04T04:13:22.044Z,1014.72
2023-03-04T04:14:02.545Z,1014.76
2023-03-04T04:14:43.030Z,1014.75
2023-03-04T04:15:23.597Z,1014.73
2023-03-04T04:16:04.083Z,1014.73
2023-03-04T04:16:44.575Z,1014.75
2023-03-04T04:17:25.024Z,1014.73
2023-03-04T04:18:05.504Z,1014.73
2023-03-04T04:18:45.987Z,1014.73
2023-03-04T04:19:26.484Z,1014.73
2023-03-04T04:20:47.489Z,1014.71
2023-03-04T04:21:27.957Z,1014.75
2023-03-04T04:22:09.086Z,1014.75
2023-03-04T04:22:49.588Z,1014.75
2023-03-04T04:23:30.154Z,1014.73
2023-03-04T04:24:10.671Z,1014.73
2023-03-04T04:24:51.152Z,1014.75
2023-03-04T04:25:31.635Z,1014.74
2023-03-04T04:26:12.143Z,1014.71
2023-03-04T04:26:52.642Z,1014.72
2023-03-04T04:28:13.664Z,1014.72
2023-03-04T04:28:54.200Z,1014.73
2023-03-04T04:29:34.688Z,1014.73
2023-03-04T04:30:15.207Z,1014.73
2023-03-04T04:30:56.799Z,1014.76
2023-03-04T04:31:36.212Z,1014.76
2023-03-04T04:32:16.803Z,1014.75
2023-03-04T04:32:57.245Z,1014.77
2023-03-04T04:33:37.754Z,1014.74
2023-03-04T04:34:18.275Z,1014.75
2023-03-04T04:34:58.747Z,1014.74
2023-03-04T04:35:39.289Z,1014.75
2023-03-04T04:36:19.812Z,1014.79
2023-03-04T04:37:00.218Z,1014.77
2023-03-04T04:37:40.749Z,1014.75
2023-03-04T04:38:21.272Z,1014.76
2023-03-04T04:39:01.817Z,1014.73
2023-03-04T04:39:42.240Z,1014.69
2023-03-04T04:40:22.778Z,1014.72
2023-03-04T04:41:03.303Z,1014.75
2023-03-04T04:41:43.792Z,1014.71
2023-03-04T04:42:24.285Z,1014.69
2023-03-04T04:43:04.729Z,1014.71
2023-03-04T04:43:45.224Z,1014.69
2023-03-04T04:44:25.731Z,1014.71
2023-03-04T04:45:46.758Z,1014.7
2023-03-04T04:46:27.207Z,1014.72
2023-03-04T04:47:07.758Z,1014.7
2023-03-04T04:47:48.188Z,1014.71
2023-03-04T04:48:28.733Z,1014.73
2023-03-04T04:49:09.185Z,1014.74
2023-03-04T04:49:49.712Z,1014.75
2023-03-04T04:50:32.585Z,1014.74
2023-03-04T04:51:10.733Z,1014.74
2023-03-04T04:51:51.256Z,1014.75
2023-03-04T04:53:12.229Z,1014.75
2023-03-04T04:53:52.813Z,1014.78
2023-03-04T04:54:33.244Z,1014.79
2023-03-04T04:55:13.750Z,1014.75
2023-03-04T04:55:54.285Z,1014.81
2023-03-04T04:56:34.760Z,1014.76
2023-03-04T04:57:15.240Z,1014.8
2023-03-04T04:57:55.748Z,1014.8
2023-03-04T04:58:36.204Z,1014.76
2023-03-04T04:59:16.685Z,1014.74
2023-03-04T04:59:57.164Z,1014.76
2023-03-04T05:00:37.656Z,1014.79
2023-03-04T05:01:18.190Z,1014.73
2023-03-04T05:01:58.654Z,1014.75
2023-03-04T05:02:39.129Z,1014.76
2023-03-04T05:03:21.441Z,1014.74
2023-03-04T05:04:00.130Z,1014.77
2023-03-04T05:04:40.673Z,1014.76
2023-03-04T05:05:21.111Z,1014.78
2023-03-04T05:06:01.572Z,1014.8
2023-03-04T05:06:42.119Z,1014.79
2023-03-04T05:07:22.634Z,1014.78
2023-03-04T05:08:03.182Z,1014.81
2023-03-04T05:11:02.446Z,1014.79
2023-03-04T05:11:42.974Z,1014.78
2023-03-04T05:12:23.476Z,1014.75
2023-03-04T05:13:03.985Z,1014.76
2023-03-04T05:13:44.533Z,1014.74
2023-03-04T05:14:25.073Z,1014.79
2023-03-04T05:15:05.563Z,1014.78
2023-03-04T05:15:46.069Z,1014.78
2023-03-04T05:16:26.707Z,1014.78
2023-03-04T05:17:07.163Z,1014.78
2023-03-04T05:17:47.696Z,1014.78
2023-03-04T05:18:28.243Z,1014.8
2023-03-04T05:19:08.700Z,1014.76
2023-03-04T05:19:49.259Z,1014.8
2023-03-04T05:20:29.791Z,1014.78
2023-03-04T05:21:10.232Z,1014.8
2023-03-04T05:21:50.743Z,1014.8
2023-03-04T05:22:31.241Z,1014.81
2023-03-04T05:23:11.730Z,1014.75
2023-03-04T05:23:52.253Z,1014.72
2023-03-04T05:24:32.714Z,1014.77
2023-03-04T05:25:13.245Z,1014.76
2023-03-04T05:25:53.757Z,1014.78
2023-03-04T05:26:34.289Z,1014.77
2023-03-04T05:27:14.803Z,1014.73
2023-03-04T05:27:55.313Z,1014.77
2023-03-04T05:28:35.914Z,1014.77
2023-03-04T05:29:16.367Z,1014.75
2023-03-04T05:29:56.910Z,1014.78
2023-03-04T05:30:37.409Z,1014.78
2023-03-04T05:31:17.952Z,1014.75
2023-03-04T05:31:58.458Z,1014.8
2023-03-04T05:32:38.948Z,1014.73
2023-03-04T05:33:19.475Z,1014.74
2023-03-04T05:33:59.975Z,1014.76
2023-03-04T05:34:40.460Z,1014.77
2023-03-04T05:35:20.983Z,1014.79
2023-03-04T05:36:01.489Z,1014.76
2023-03-04T05:36:42.047Z,1014.8
2023-03-04T05:37:22.532Z,1014.75
2023-03-04T05:38:03.031Z,1014.73
2023-03-04T05:38:43.619Z,1014.75
2023-03-04T05:39:24.090Z,1014.76
2023-03-04T05:40:04.643Z,1014.76
2023-03-04T05:40:45.115Z,1014.76
2023-03-04T05:41:25.652Z,1014.79
2023-03-04T05:42:06.198Z,1014.78
2023-03-04T05:42:46.670Z,1014.77
2023-03-04T05:43:27.197Z,1014.8
2023-03-04T05:44:07.670Z,1014.81
2023-03-04T05:45:28.662Z,1014.81
2023-03-04T05:46:09.219Z,1014.82
2023-03-04T05:46:49.782Z,1014.79
2023-03-04T05:47:30.201Z,1014.82
2023-03-04T05:48:10.705Z,1014.79
2023-03-04T05:48:51.207Z,1014.78
2023-03-04T05:49:31.714Z,1014.78
2023-03-04T05:50:12.223Z,1014.81
2023-03-04T05:50:52.733Z,1014.81
2023-03-04T05:51:33.178Z,1014.79
2023-03-04T05:52:13.666Z,1014.84
2023-03-04T06:32:02.894Z,1014.96
2023-03-04T06:32:43.283Z,1014.97
2023-03-04T06:33:23.787Z,1014.97
2023-03-04T06:34:04.334Z,1014.98
2023-03-04T06:34:44.856Z,1015.02
2023-03-04T06:35:25.413Z,1015.01
2023-03-04T06:36:05.855Z,1014.99
2023-03-04T06:36:46.391Z,1014.99
2023-03-04T06:37:26.860Z,1015.04
2023-03-04T06:38:07.403Z,1015
2023-03-04T06:38:47.879Z,1014.96
2023-03-04T06:39:28.392Z,1014.99
2023-03-04T06:40:08.888Z,1014.98
2023-03-04T06:40:49.481Z,1015.03
2023-03-04T06:41:29.955Z,1015.05
2023-03-04T06:42:10.414Z,1015.01
2023-03-04T06:42:50.916Z,1015.06
2023-03-04T06:43:31.377Z,1015.05
2023-03-04T06:44:11.995Z,1015.06
2023-03-04T06:44:58.944Z,1015.03
2023-03-04T06:45:39.447Z,1015.04
2023-03-04T06:46:19.957Z,1015.05
2023-03-04T06:47:00.508Z,1015.06
2023-03-04T06:47:40.961Z,1015.14
2023-03-04T06:48:21.415Z,1015.15
2023-03-04T06:49:01.947Z,1015.13
2023-03-04T06:49:42.478Z,1015.14
2023-03-04T06:50:22.935Z,1015.16
2023-03-04T06:51:03.476Z,1015.18
2023-03-04T06:51:43.985Z,1015.16
2023-03-04T06:52:24.510Z,1015.19
2023-03-04T06:53:04.979Z,1015.21
2023-03-04T06:53:45.454Z,1015.2
2023-03-04T06:54:25.929Z,1015.22
2023-03-04T06:55:06.471Z,1015.26
2023-03-04T06:55:46.937Z,1015.22
2023-03-04T06:56:27.445Z,1015.25
2023-03-04T06:57:08.870Z,1015.24
2023-03-04T06:57:48.685Z,1015.28
2023-03-04T06:58:28.934Z,1015.24
2023-03-04T06:59:09.472Z,1015.24
2023-03-04T06:59:49.960Z,1015.23
2023-03-04T07:00:30.564Z,1015.25
2023-03-04T07:01:11.175Z,1015.22
2023-03-04T07:01:51.515Z,1015.19
2023-03-04T07:02:32.092Z,1015.18
2023-03-04T07:03:12.691Z,1015.21
2023-03-04T07:03:53.224Z,1015.19
2023-03-04T07:04:33.611Z,1015.22
2023-03-04T07:05:14.107Z,1015.26
2023-03-04T07:06:35.118Z,1015.24
2023-03-04T07:07:15.605Z,1015.24
2023-03-04T07:07:56.113Z,1015.25
2023-03-04T07:08:36.593Z,1015.22
2023-03-04T07:09:17.052Z,1015.22
2023-03-04T07:09:57.562Z,1015.23
2023-03-04T07:10:38.110Z,1015.24
2023-03-04T07:11:18.670Z,1015.28
2023-03-04T07:11:59.129Z,1015.28
2023-03-04T07:12:39.658Z,1015.32
2023-03-04T07:13:20.231Z,1015.28
2023-03-04T07:14:00.677Z,1015.28
2023-03-04T07:14:41.178Z,1015.24
2023-03-04T07:15:21.673Z,1015.27
2023-03-04T07:16:02.244Z,1015.26
2023-03-04T07:16:42.740Z,1015.33
2023-03-04T07:17:23.135Z,1015.27
2023-03-04T07:18:03.648Z,1015.31
2023-03-04T07:18:44.169Z,1015.34
2023-03-04T07:19:24.666Z,1015.32
2023-03-04T07:20:05.197Z,1015.34
2023-03-04T07:20:45.690Z,1015.36
2023-03-04T07:21:26.906Z,1015.33
2023-03-04T07:22:06.704Z,1015.39
2023-03-04T07:22:47.220Z,1015.31
2023-03-04T07:23:27.671Z,1015.35
2023-03-04T07:24:08.202Z,1015.35
2023-03-04T07:24:48.681Z,1015.37
2023-03-04T07:25:29.201Z,1015.36
2023-03-04T07:26:09.718Z,1015.42
2023-03-04T07:26:50.250Z,1015.4
2023-03-04T07:27:30.777Z,1015.42
2023-03-04T07:28:11.296Z,1015.41
2023-03-04T07:28:51.818Z,1015.41
2023-03-04T07:29:32.310Z,1015.41
2023-03-04T07:30:12.804Z,1015.44
2023-03-04T07:30:53.299Z,1015.43
2023-03-04T07:31:33.804Z,1015.44
2023-03-04T07:32:14.454Z,1015.45
2023-03-04T07:32:54.786Z,1015.45
2023-03-04T07:34:15.823Z,1015.45
2023-03-04T07:34:56.295Z,1015.49
2023-03-04T07:35:36.863Z,1015.48
2023-03-04T07:36:17.350Z,1015.48
2023-03-04T07:36:57.867Z,1015.49
2023-03-04T07:37:38.358Z,1015.47
2023-03-04T07:38:18.867Z,1015.5
2023-03-04T07:38:59.378Z,1015.49
2023-03-04T07:39:39.881Z,1015.47
2023-03-04T07:40:20.467Z,1015.49
2023-03-04T07:41:00.960Z,1015.51
2023-03-04T07:41:41.521Z,1015.52
2023-03-04T07:42:21.992Z,1015.54
2023-03-04T07:43:02.505Z,1015.54
2023-03-04T07:43:43.052Z,1015.56
2023-03-04T07:44:23.566Z,1015.55
2023-03-04T07:45:04.063Z,1015.56
2023-03-04T07:45:44.628Z,1015.57
2023-03-04T07:46:25.056Z,1015.56
2023-03-04T07:47:05.593Z,1015.55
2023-03-04T07:47:46.125Z,1015.61
2023-03-04T07:48:26.664Z,1015.52
2023-03-04T07:49:07.147Z,1015.51
2023-03-04T07:49:47.754Z,1015.57
2023-03-04T07:50:28.169Z,1015.56
2023-03-04T07:51:08.589Z,1015.58
2023-03-04T07:51:49.096Z,1015.55
2023-03-04T07:52:29.596Z,1015.57
2023-03-04T07:53:10.104Z,1015.6
2023-03-04T07:53:50.606Z,1015.59
2023-03-04T07:54:31.053Z,1015.59
2023-03-04T07:55:11.585Z,1015.58
2023-03-04T07:55:52.102Z,1015.58
2023-03-04T07:56:32.642Z,1015.53
2023-03-04T07:57:13.149Z,1015.53
2023-03-04T07:57:53.715Z,1015.56
2023-03-04T07:58:34.207Z,1015.56
2023-03-04T07:59:14.670Z,1015.55
2023-03-04T07:59:55.204Z,1015.57
2023-03-04T08:00:35.678Z,1015.52
2023-03-04T08:01:16.173Z,1015.53
2023-03-04T08:01:56.677Z,1015.56
2023-03-04T08:02:37.204Z,1015.55
2023-03-04T08:03:17.643Z,1015.57
2023-03-04T08:03:58.270Z,1015.53
2023-03-04T08:04:38.625Z,1015.54
2023-03-04T08:05:19.169Z,1015.57
2023-03-04T08:05:59.639Z,1015.56
2023-03-04T08:06:40.162Z,1015.56
2023-03-04T08:07:20.649Z,1015.54
2023-03-04T08:08:01.185Z,1015.57
2023-03-04T08:08:41.626Z,1015.54
2023-03-04T08:09:22.137Z,1015.48
2023-03-04T08:10:02.658Z,1015.49
2023-03-04T08:10:43.171Z,1015.52
2023-03-04T08:11:23.623Z,1015.53
2023-03-04T08:12:04.172Z,1015.53
2023-03-04T08:12:44.662Z,1015.54
2023-03-04T08:13:25.940Z,1015.54
2023-03-04T08:14:46.173Z,1015.55
2023-03-04T08:15:26.681Z,1015.53
2023-03-04T08:16:07.255Z,1015.52
2023-03-04T08:16:47.736Z,1015.54
2023-03-04T08:17:28.261Z,1015.54
2023-03-04T08:18:08.784Z,1015.57
2023-03-04T08:18:49.273Z,1015.52
2023-03-04T08:19:29.782Z,1015.56
2023-03-04T08:20:10.316Z,1015.55
2023-03-04T08:20:50.814Z,1015.58
2023-03-04T08:21:31.273Z,1015.58
2023-03-04T08:22:11.796Z,1015.59
2023-03-04T08:22:52.329Z,1015.58
2023-03-04T08:23:32.868Z,1015.62
2023-03-04T08:24:53.843Z,1015.59
2023-03-04T08:25:34.362Z,1015.58
2023-03-04T08:26:14.804Z,1015.6
2023-03-04T08:26:55.337Z,1015.6
2023-03-04T08:27:36.474Z,1015.64
2023-03-04T08:28:17.009Z,1015.61
2023-03-04T08:28:57.465Z,1015.64
2023-03-04T08:29:38.045Z,1015.6
2023-03-04T08:30:18.515Z,1015.61
2023-03-04T08:30:59.077Z,1015.62
2023-03-04T08:31:39.776Z,1015.62
2023-03-04T08:32:20.251Z,1015.68
2023-03-04T08:33:00.801Z,1015.65
2023-03-04T08:33:41.108Z,1015.64
2023-03-04T08:34:21.633Z,1015.67
2023-03-04T08:35:02.156Z,1015.63
2023-03-04T08:35:42.731Z,1015.66
2023-03-04T08:36:23.205Z,1015.61
2023-03-04T08:37:03.738Z,1015.65
2023-03-04T08:37:44.288Z,1015.65
2023-03-04T08:38:24.720Z,1015.68
2023-03-04T08:39:05.223Z,1015.66
2023-03-04T08:39:45.756Z,1015.67
2023-03-04T08:40:26.296Z,1015.71
2023-03-04T08:41:06.736Z,1015.73
2023-03-04T08:41:47.280Z,1015.71
2023-03-04T08:42:27.791Z,1015.73
2023-03-04T08:43:08.270Z,1015.67
2023-03-04T08:43:49.120Z,1015.69
2023-03-04T08:44:29.389Z,1015.72
2023-03-04T08:45:09.909Z,1015.72
2023-03-04T08:45:50.536Z,1015.71
2023-03-04T08:46:30.959Z,1015.67
2023-03-04T08:47:11.396Z,1015.69
2023-03-04T08:47:51.911Z,1015.75
2023-03-04T08:48:32.378Z,1015.73
2023-03-04T08:49:12.873Z,1015.75
2023-03-04T08:49:53.420Z,1015.74
2023-03-04T08:50:33.931Z,1015.75
2023-03-04T08:51:14.395Z,1015.75
2023-03-04T08:51:54.948Z,1015.7
2023-03-04T08:52:35.445Z,1015.74
2023-03-04T08:53:15.952Z,1015.76
2023-03-04T08:53:56.523Z,1015.78
2023-03-04T08:54:37.015Z,1015.8
2023-03-04T08:55:17.505Z,1015.78
2023-03-04T08:55:58.049Z,1015.73
2023-03-04T08:56:38.581Z,1015.77
2023-03-04T08:57:19.135Z,1015.77
2023-03-04T08:57:59.602Z,1015.79
2023-03-04T08:58:40.100Z,1015.82
2023-03-04T08:59:20.960Z,1015.77
2023-03-04T09:00:01.472Z,1015.78
2023-03-04T09:00:41.982Z,1015.78
2023-03-04T09:01:22.477Z,1015.76
2023-03-04T09:02:03.093Z,1015.78
2023-03-04T09:02:43.504Z,1015.82
2023-03-04T09:03:24.034Z,1015.78
2023-03-04T09:04:04.524Z,1015.78
2023-03-04T09:05:25.545Z,1015.78
2023-03-04T09:06:06.047Z,1015.77
2023-03-04T09:06:46.632Z,1015.79
2023-03-04T09:07:27.128Z,1015.83
2023-03-04T09:08:07.613Z,1015.75
2023-03-04T09:08:48.175Z,1015.75
2023-03-04T09:09:28.626Z,1015.78
2023-03-04T09:10:09.176Z,1015.78
2023-03-04T09:10:49.715Z,1015.83
2023-03-04T09:11:30.224Z,1015.77
2023-03-04T09:12:10.687Z,1015.77
2023-03-04T09:12:51.202Z,1015.74
2023-03-04T09:13:31.869Z,1015.77
2023-03-04T09:14:12.247Z,1015.77
2023-03-04T09:15:04.757Z,1015.74
2023-03-04T09:15:33.215Z,1015.74
2023-03-04T09:16:13.790Z,1015.72
2023-03-04T09:16:54.275Z,1015.69
2023-03-04T09:17:34.713Z,1015.69
2023-03-04T09:18:15.194Z,1015.74
2023-03-04T09:18:55.725Z,1015.72
2023-03-04T09:19:36.341Z,1015.7
2023-03-04T09:20:16.813Z,1015.7
2023-03-04T09:20:57.305Z,1015.72
2023-03-04T09:21:37.797Z,1015.66
2023-03-04T09:22:18.298Z,1015.71
2023-03-04T09:22:59.527Z,1015.71
2023-03-04T09:23:40.027Z,1015.69
2023-03-04T09:24:20.550Z,1015.66
2023-03-04T09:25:01.089Z,1015.69
2023-03-04T09:25:41.564Z,1015.69
2023-03-04T09:26:22.116Z,1015.72
2023-03-04T09:27:02.621Z,1015.7
2023-03-04T09:27:43.125Z,1015.68
2023-03-04T09:28:23.598Z,1015.72
2023-03-04T09:29:04.148Z,1015.68
2023-03-04T09:29:44.578Z,1015.7
2023-03-04T09:30:25.071Z,1015.69
2023-03-04T09:31:05.609Z,1015.7
2023-03-04T09:31:46.111Z,1015.72
2023-03-04T09:33:07.096Z,1015.62
2023-03-04T09:33:47.585Z,1015.71
2023-03-04T09:34:28.121Z,1015.69
2023-03-04T09:35:08.623Z,1015.64
2023-03-04T09:35:49.201Z,1015.64
2023-03-04T09:36:29.641Z,1015.66
2023-03-04T09:37:10.083Z,1015.59
2023-03-04T09:37:50.646Z,1015.65
2023-03-04T09:38:31.136Z,1015.64
2023-03-04T09:39:11.609Z,1015.67
2023-03-04T09:40:32.682Z,1015.74
2023-03-04T09:41:13.227Z,1015.7
2023-03-04T09:41:53.703Z,1015.73
2023-03-04T09:42:34.208Z,1015.75
2023-03-04T09:43:14.719Z,1015.72
2023-03-04T09:43:55.205Z,1015.72